Time;durP1;ratioP1;P1;durP2;ratioP2;P2;SDS_P1;SDS_P2;PMS_P1;PMS_P2;Temp;Humidity;BMP_temperature;BMP_pressure;BME280_temperature;BME280_humidity;BME280_pressure;Samples;Min_cycle;Max_cycle;Signal;HPM_P1;HPM_P2
2022/01/12 00:01:01;;;;;;;15.05;8.35;;;4.70;44.00;;;;;;5054402;28;20040;-69
2022/01/12 00:03:27;;;;;;;17.47;9.03;;;4.60;44.10;;;;;;5053826;28;20031;-69
2022/01/12 00:05:53;;;;;;;14.20;8.40;;;4.50;44.60;;;;;;5053805;28;20021;-77
2022/01/12 00:08:19;;;;;;;15.73;8.47;;;4.40;44.60;;;;;;5053603;28;20536;-69
2022/01/12 00:10:44;;;;;;;16.90;8.93;;;4.40;45.10;;;;;;5053448;28;20044;-77
2022/01/12 00:13:10;;;;;;;11.83;5.90;;;4.40;44.90;;;;;;5053413;28;20013;-69
2022/01/12 00:15:36;;;;;;;13.73;7.53;;;4.30;43.80;;;;;;5053628;28;20025;-68
2022/01/12 00:18:02;;;;;;;15.47;8.30;;;4.40;44.20;;;;;;5052365;28;20025;-69
2022/01/12 00:20:28;;;;;;;15.27;8.43;;;4.50;44.30;;;;;;5053653;28;20029;-69
2022/01/12 00:22:54;;;;;;;9.80;5.23;;;4.50;44.20;;;;;;5053702;28;20028;-72
2022/01/12 00:33:16;;;;;;;11.83;6.47;;;4.50;40.50;;;;;;5052985;28;20028;-69
2022/01/12 00:35:46;;;;;;;9.93;5.60;;;4.50;41.20;;;;;;5053095;28;20060;-76
2022/01/12 00:38:14;;;;;;;6.20;3.50;;;4.50;41.60;;;;;;5053129;28;20112;-75
2022/01/12 00:40:45;;;;;;;6.10;3.30;;;4.50;39.70;;;;;;5053069;28;20048;-69
2022/01/12 00:43:12;;;;;;;6.23;3.00;;;4.60;39.30;;;;;;5053390;28;20025;-73
2022/01/12 00:45:42;;;;;;;11.30;5.17;;;4.70;38.60;;;;;;5053189;28;20470;-76
2022/01/12 00:48:08;;;;;;;11.80;7.33;;;4.70;39.00;;;;;;5053107;28;20052;-69
2022/01/12 00:50:34;;;;;;;14.30;7.20;;;4.70;40.90;;;;;;5052810;28;20037;-69
2022/01/12 00:53:00;;;;;;;11.40;6.87;;;4.70;41.90;;;;;;5053154;28;20029;-69
2022/01/12 00:55:25;;;;;;;11.63;7.23;;;4.60;42.40;;;;;;5052985;28;20143;-69
2022/01/12 00:57:51;;;;;;;13.37;7.07;;;4.60;43.00;;;;;;5053128;28;20381;-77
2022/01/12 01:00:20;;;;;;;12.27;7.13;;;4.50;43.30;;;;;;5051593;28;20059;-70
2022/01/12 01:02:46;;;;;;;11.63;6.50;;;4.50;43.90;;;;;;5053138;28;20029;-69
2022/01/12 01:05:11;;;;;;;9.10;5.80;;;4.40;43.90;;;;;;5052974;28;20025;-77
2022/01/12 01:07:37;;;;;;;9.33;5.43;;;4.40;42.90;;;;;;5052747;28;20035;-69
2022/01/12 01:10:06;;;;;;;8.77;4.93;;;4.40;41.90;;;;;;5053019;28;20044;-77
2022/01/12 01:12:35;;;;;;;6.73;3.67;;;4.50;40.60;;;;;;5053099;28;20028;-68
2022/01/12 01:15:10;;;;;;;9.90;4.97;;;4.50;39.90;;;;;;5052558;28;20029;-71
2022/01/12 01:25:38;;;;;;;10.63;5.63;;;4.50;42.00;;;;;;5052709;28;20154;-69
2022/01/12 01:28:05;;;;;;;10.73;5.37;;;4.50;41.60;;;;;;5052513;28;20044;-70
2022/01/12 01:30:34;;;;;;;7.93;4.30;;;4.50;41.70;;;;;;5052553;28;20056;-72
2022/01/12 01:33:05;;;;;;;10.43;4.53;;;4.50;40.90;;;;;;5052619;28;20029;-76
2022/01/12 01:35:33;;;;;;;9.37;4.67;;;4.50;40.60;;;;;;5052528;28;20037;-76
2022/01/12 01:38:01;;;;;;;8.13;4.40;;;4.50;40.00;;;;;;5052479;28;20392;-74
2022/01/12 01:40:27;;;;;;;10.10;4.93;;;4.60;40.30;;;;;;5052373;28;20091;-68
2022/01/12 01:53:41;;;;;;;7.70;4.27;;;4.50;40.80;;;;;;5056551;28;20543;-68
2022/01/12 01:56:07;;;;;;;6.47;3.67;;;4.50;39.50;;;;;;5056246;28;20021;-73
2022/01/12 01:58:33;;;;;;;5.63;3.50;;;4.60;39.10;;;;;;5054525;28;20025;-68
2022/01/12 02:00:59;;;;;;;5.00;2.87;;;4.60;38.90;;;;;;5053820;28;20452;-69
2022/01/12 02:03:29;;;;;;;5.27;3.10;;;4.70;37.80;;;;;;5053576;28;20036;-69
2022/01/12 02:05:55;;;;;;;4.90;3.03;;;4.70;37.30;;;;;;5055492;28;20025;-69
2022/01/12 02:08:21;;;;;;;5.70;3.07;;;4.80;37.50;;;;;;5056044;28;20025;-68
2022/01/12 02:10:53;;;;;;;4.90;2.67;;;4.80;38.00;;;;;;5055698;28;20123;-68
2022/01/12 02:13:18;;;;;;;17.13;2.40;;;4.90;36.70;;;;;;5055923;28;20021;-69
2022/01/12 02:15:46;;;;;;;4.67;1.97;;;5.00;35.40;;;;;;5056062;28;20029;-77
2022/01/12 02:40:11;;;;;;;4.57;2.90;;;5.70;34.50;;;;;;5055587;28;20040;-75
2022/01/12 02:42:42;;;;;;;6.10;3.27;;;5.70;34.40;;;;;;5055305;28;20504;-69
2022/01/12 02:50:43;;;;;;;7.10;3.70;;;5.50;35.80;;;;;;5054870;28;20083;-69
2022/01/12 02:55:54;;;;;;;5.47;2.87;;;5.40;35.50;;;;;;5054660;28;20040;-69
2022/01/12 02:58:19;;;;;;;6.43;3.97;;;5.40;35.20;;;;;;5054825;28;20021;-68
2022/01/12 03:03:39;;;;;;;5.10;3.47;;;5.40;36.10;;;;;;5031837;28;20083;-69
2022/01/12 03:06:07;;;;;;;5.57;3.37;;;5.40;36.10;;;;;;5054906;28;20037;-69
2022/01/12 03:08:37;;;;;;;6.93;3.20;;;5.40;36.00;;;;;;5055161;28;20481;-69
2022/01/12 03:11:11;;;;;;;6.53;3.50;;;5.30;36.00;;;;;;5055048;28;20366;-69
2022/01/12 03:13:37;;;;;;;6.80;3.77;;;5.30;35.80;;;;;;5055218;28;20032;-77
2022/01/12 03:16:18;;;;;;;5.47;3.23;;;5.30;36.30;;;;;;5055106;28;20021;-68
2022/01/12 03:18:50;;;;;;;6.30;3.90;;;5.40;35.50;;;;;;5054920;28;20059;-75
2022/01/12 03:21:18;;;;;;;6.87;4.00;;;5.40;36.60;;;;;;5054664;28;20055;-68
2022/01/12 03:23:44;;;;;;;5.63;3.47;;;5.30;36.80;;;;;;5054784;28;20021;-70
2022/01/12 03:26:10;;;;;;;7.03;4.17;;;5.30;37.40;;;;;;5054669;28;20495;-75
2022/01/12 03:28:38;;;;;;;7.33;4.50;;;5.20;37.60;;;;;;5054826;28;20021;-77
2022/01/12 03:31:22;;;;;;;7.40;4.20;;;5.20;38.20;;;;;;5054589;28;20121;-68
2022/01/12 03:33:56;;;;;;;7.47;4.10;;;5.10;38.40;;;;;;5054580;28;20109;-68
2022/01/12 03:39:10;;;;;;;8.10;4.13;;;5.00;38.70;;;;;;5054371;28;20040;-69
2022/01/12 03:41:37;;;;;;;7.47;3.97;;;5.00;39.20;;;;;;5054348;28;20031;-70
2022/01/12 03:44:06;;;;;;;10.00;4.23;;;5.00;39.00;;;;;;5054235;28;20061;-76
2022/01/12 03:46:49;;;;;;;7.73;4.13;;;4.90;39.10;;;;;;5054312;28;20139;-68
2022/01/12 03:49:17;;;;;;;7.72;4.55;;;4.90;39.30;;;;;;5054005;28;20504;-77
2022/01/12 03:51:44;;;;;;;8.33;3.20;;;4.90;39.60;;;;;;5054016;28;20040;-69
2022/01/12 03:54:10;;;;;;;5.10;2.70;;;4.90;37.90;;;;;;5054392;28;20025;-68
2022/01/12 03:56:36;;;;;;;4.07;2.47;;;5.00;36.50;;;;;;5054022;28;20031;-71
2022/01/12 03:59:02;;;;;;;4.80;2.40;;;5.00;35.50;;;;;;5054107;28;20373;-69
2022/01/12 04:01:28;;;;;;;5.83;2.30;;;5.10;35.90;;;;;;5054058;28;20029;-70
2022/01/12 04:04:01;;;;;;;4.63;2.60;;;5.10;35.60;;;;;;5053797;28;20086;-69
2022/01/12 04:09:11;;;;;;;3.70;2.10;;;5.20;35.00;;;;;;5054110;28;20044;-69
2022/01/12 04:11:37;;;;;;;3.60;2.00;;;5.20;35.30;;;;;;5054055;28;20028;-77
2022/01/12 04:14:04;;;;;;;4.73;2.57;;;5.30;35.00;;;;;;5053838;28;20029;-69
2022/01/12 04:16:30;;;;;;;5.73;2.47;;;5.30;34.50;;;;;;5054020;28;20021;-68
2022/01/12 04:18:56;;;;;;;4.77;2.23;;;5.30;34.70;;;;;;5053946;28;20060;-77
2022/01/12 04:21:27;;;;;;;4.50;2.47;;;5.40;34.20;;;;;;5053580;28;20041;-68
2022/01/12 04:23:54;;;;;;;5.90;3.20;;;5.40;34.90;;;;;;5053444;28;20021;-68
2022/01/12 04:26:20;;;;;;;6.27;3.13;;;5.40;35.40;;;;;;5053657;28;20086;-69
2022/01/12 04:28:46;;;;;;;9.07;4.00;;;5.40;35.70;;;;;;5053677;28;20112;-69
2022/01/12 04:31:12;;;;;;;6.80;3.57;;;5.30;36.80;;;;;;5053382;28;20044;-69
2022/01/12 04:33:40;;;;;;;6.03;4.00;;;5.30;36.10;;;;;;5053590;28;20059;-77
2022/01/12 04:36:06;;;;;;;7.47;3.40;;;5.20;37.00;;;;;;5053173;28;20025;-69
2022/01/12 04:38:34;;;;;;;8.50;4.63;;;5.10;36.80;;;;;;5053402;28;20146;-69
2022/01/12 04:41:05;;;;;;;8.80;4.43;;;5.10;37.90;;;;;;5053408;28;20043;-68
2022/01/12 04:43:31;;;;;;;8.93;4.67;;;5.00;38.70;;;;;;5053501;28;20031;-77
2022/01/12 04:46:09;;;;;;;8.20;4.90;;;5.00;39.10;;;;;;5053155;28;20029;-69
2022/01/12 04:51:03;;;;;;;6.57;4.20;;;4.80;39.80;;;;;;5053303;28;20040;-69
2022/01/12 04:53:30;;;;;;;8.10;4.83;;;4.70;40.20;;;;;;5053272;28;20381;-69
2022/01/12 04:55:57;;;;;;;9.63;5.10;;;4.70;40.50;;;;;;5053140;28;20029;-78
2022/01/12 04:58:23;;;;;;;8.37;4.43;;;4.60;40.80;;;;;;5053070;28;20044;-69
2022/01/12 05:00:51;;;;;;;9.07;4.63;;;4.60;40.70;;;;;;5053248;28;20028;-70
2022/01/12 05:13:59;;;;;;;7.53;4.47;;;4.40;41.10;;;;;;5053290;28;20027;-77
2022/01/12 05:16:25;;;;;;;10.13;5.07;;;4.50;40.60;;;;;;5052955;28;20021;-76
2022/01/12 05:18:53;;;;;;;8.67;4.67;;;4.50;40.50;;;;;;5052854;28;20139;-69
2022/01/12 05:21:21;;;;;;;15.10;5.87;;;4.60;40.90;;;;;;5052635;28;20049;-75
2022/01/12 05:23:47;;;;;;;9.57;5.30;;;4.60;40.60;;;;;;5052878;28;20032;-69
2022/01/12 05:26:14;;;;;;;10.63;5.50;;;4.70;39.90;;;;;;5053052;28;20570;-68
2022/01/12 05:28:40;;;;;;;11.50;5.20;;;4.70;40.00;;;;;;5053043;28;20023;-69
2022/01/12 05:31:07;;;;;;;9.03;4.80;;;4.60;40.50;;;;;;5052755;28;20130;-78
2022/01/12 05:33:33;;;;;;;7.43;4.60;;;4.60;40.50;;;;;;5052503;28;20025;-76
2022/01/12 05:36:00;;;;;;;9.70;4.97;;;4.60;40.30;;;;;;5052568;28;20389;-69
2022/01/12 05:38:26;;;;;;;9.63;4.87;;;4.60;39.90;;;;;;5052755;28;20109;-68
2022/01/12 05:40:55;;;;;;;10.47;5.57;;;4.50;40.10;;;;;;5052462;28;20104;-70
2022/01/12 05:43:25;;;;;;;8.53;5.17;;;4.50;40.80;;;;;;5052456;28;20017;-69
2022/01/12 05:45:53;;;;;;;9.47;5.40;;;4.50;41.00;;;;;;5052627;28;20025;-70
2022/01/12 05:50:49;;;;;;;8.97;4.93;;;4.30;41.30;;;;;;5052385;28;20091;-68
2022/01/12 05:53:16;;;;;;;10.97;5.33;;;4.30;41.30;;;;;;5052633;28;20014;-68
2022/01/12 05:55:42;;;;;;;11.97;4.83;;;4.30;41.40;;;;;;5052706;28;20023;-69
2022/01/12 05:58:08;;;;;;;9.00;4.80;;;4.20;41.70;;;;;;5052735;28;20092;-72
2022/01/12 06:00:35;;;;;;;8.57;5.03;;;4.30;41.40;;;;;;5052330;28;20149;-68
2022/01/12 06:03:00;;;;;;;10.40;5.27;;;4.30;41.60;;;;;;5052487;28;20056;-69
2022/01/12 06:05:28;;;;;;;10.33;5.67;;;4.30;41.20;;;;;;5052328;28;20064;-69
2022/01/12 06:07:54;;;;;;;9.97;4.87;;;4.30;41.30;;;;;;5052778;28;20587;-68
2022/01/12 06:10:22;;;;;;;9.27;5.23;;;4.30;41.90;;;;;;5052631;28;20401;-68
2022/01/12 06:12:49;;;;;;;8.00;4.93;;;4.30;41.30;;;;;;5052374;28;20039;-68
2022/01/12 06:15:14;;;;;;;8.97;5.07;;;4.40;40.80;;;;;;5052167;28;20079;-76
2022/01/12 06:17:40;;;;;;;9.33;5.10;;;4.40;40.80;;;;;;5052263;28;20029;-69
2022/01/12 06:20:07;;;;;;;10.07;5.60;;;4.30;41.70;;;;;;5052349;28;20029;-68
2022/01/12 06:22:32;;;;;;;8.57;5.00;;;4.20;42.50;;;;;;5052139;28;20551;-76
2022/01/12 06:25:00;;;;;;;12.03;5.43;;;4.10;42.60;;;;;;5052192;28;20029;-68
2022/01/12 06:27:29;;;;;;;11.60;6.20;;;4.00;42.70;;;;;;5052284;28;20104;-77
2022/01/12 06:32:21;;;;;;;9.67;5.43;;;3.90;43.50;;;;;;5055745;28;20112;-69
2022/01/12 06:34:49;;;;;;;10.43;5.50;;;3.80;43.40;;;;;;5055918;28;20533;-68
2022/01/12 06:37:15;;;;;;;8.50;4.90;;;3.90;43.40;;;;;;5055708;28;20108;-69
2022/01/12 06:39:40;;;;;;;12.20;5.30;;;3.90;42.60;;;;;;5055423;28;20103;-68
2022/01/12 06:42:07;;;;;;;11.60;4.97;;;3.90;43.00;;;;;;5055387;28;20040;-68
2022/01/12 06:44:32;;;;;;;8.40;4.80;;;3.90;42.80;;;;;;5054994;28;20033;-68
2022/01/12 06:47:02;;;;;;;10.50;4.90;;;3.90;42.50;;;;;;5055358;28;20109;-69
2022/01/12 06:49:28;;;;;;;9.43;4.80;;;3.90;42.40;;;;;;5055246;28;20104;-68
2022/01/12 06:51:54;;;;;;;7.23;4.20;;;3.90;42.50;;;;;;5055402;28;20591;-69
2022/01/12 06:54:20;;;;;;;11.40;4.37;;;3.90;42.50;;;;;;5055095;28;20052;-78
2022/01/12 06:56:45;;;;;;;8.73;4.67;;;3.90;42.00;;;;;;5054911;28;20086;-69
2022/01/12 06:59:11;;;;;;;9.53;4.63;;;3.90;41.90;;;;;;5055053;28;20025;-69
2022/01/12 07:01:38;;;;;;;46.27;5.47;;;3.90;41.90;;;;;;5055158;28;20017;-68
2022/01/12 07:04:04;;;;;;;8.23;3.80;;;3.90;39.80;;;;;;5055018;28;20496;-68
2022/01/12 07:06:30;;;;;;;8.07;3.57;;;4.00;39.10;;;;;;5055309;28;20429;-69
2022/01/12 07:08:56;;;;;;;4.97;3.07;;;4.00;39.00;;;;;;5054664;28;20021;-67
2022/01/12 07:11:22;;;;;;;5.50;2.90;;;4.10;38.50;;;;;;5054698;28;20035;-67
2022/01/12 07:13:47;;;;;;;5.30;2.90;;;4.20;37.80;;;;;;5054925;28;20101;-66
2022/01/12 07:16:13;;;;;;;7.23;3.47;;;4.20;37.40;;;;;;5054778;28;20032;-69
2022/01/12 07:18:39;;;;;;;7.03;3.40;;;4.30;37.30;;;;;;5055079;28;20029;-68
2022/01/12 07:21:05;;;;;;;8.33;3.30;;;4.40;37.40;;;;;;5054713;28;20029;-68
2022/01/12 07:23:31;;;;;;;8.07;4.37;;;4.40;37.20;;;;;;5054694;28;20056;-68
2022/01/12 07:25:57;;;;;;;11.40;4.80;;;4.40;38.40;;;;;;5054830;28;20436;-69
2022/01/12 07:28:23;;;;;;;10.97;4.93;;;4.40;39.20;;;;;;5054677;28;20025;-72
2022/01/12 07:30:49;;;;;;;11.17;5.37;;;4.40;40.20;;;;;;5054806;28;20060;-69
2022/01/12 07:33:16;;;;;;;13.53;5.57;;;4.30;40.70;;;;;;5054435;28;20020;-73
2022/01/12 07:35:42;;;;;;;11.43;5.07;;;4.30;41.30;;;;;;5054233;28;20052;-72
2022/01/12 07:38:08;;;;;;;8.90;5.00;;;4.30;41.20;;;;;;5054630;28;20025;-69
2022/01/12 07:40:35;;;;;;;11.77;5.63;;;4.20;41.80;;;;;;5053212;28;20028;-68
2022/01/12 07:43:02;;;;;;;11.43;6.10;;;4.20;42.10;;;;;;5054387;28;20024;-68
2022/01/12 07:45:28;;;;;;;13.93;6.10;;;4.20;42.10;;;;;;5054391;28;20032;-68
2022/01/12 07:47:54;;;;;;;16.67;6.90;;;4.20;42.40;;;;;;5054683;28;20031;-68
2022/01/12 07:50:19;;;;;;;11.20;6.13;;;4.20;42.80;;;;;;5054447;28;20033;-69
2022/01/12 07:52:45;;;;;;;10.30;5.97;;;4.30;42.50;;;;;;5054599;28;20025;-69
2022/01/12 07:55:11;;;;;;;11.60;5.90;;;4.40;41.80;;;;;;5053895;28;20055;-69
2022/01/12 07:57:37;;;;;;;11.27;5.83;;;4.40;42.70;;;;;;5054387;28;20029;-69
2022/01/12 08:00:04;;;;;;;12.13;5.73;;;4.50;42.50;;;;;;5054503;28;20032;-68
2022/01/12 08:02:30;;;;;;;12.20;5.80;;;4.50;42.50;;;;;;5054338;28;20029;-69
2022/01/12 08:04:56;;;;;;;15.83;6.10;;;4.50;42.80;;;;;;5053954;28;20044;-68
2022/01/12 08:07:22;;;;;;;10.00;5.07;;;4.60;43.20;;;;;;5054017;28;20033;-68
2022/01/12 08:09:48;;;;;;;10.63;5.97;;;4.60;43.00;;;;;;5053968;28;20037;-69
2022/01/12 08:12:13;;;;;;;8.77;4.97;;;4.70;42.90;;;;;;5052669;28;20394;-68
2022/01/12 08:14:39;;;;;;;12.40;5.77;;;4.70;42.70;;;;;;5053849;28;20036;-68
2022/01/12 08:17:05;;;;;;;15.47;6.57;;;4.80;43.40;;;;;;5052899;28;20418;-68
2022/01/12 08:19:35;;;;;;;15.63;6.23;;;4.80;43.00;;;;;;5053932;28;20085;-68
2022/01/12 08:22:00;;;;;;;15.10;6.47;;;4.90;43.00;;;;;;5053920;28;20041;-68
2022/01/12 08:24:26;;;;;;;17.13;6.20;;;5.00;42.80;;;;;;5053798;28;20025;-68
2022/01/12 08:26:52;;;;;;;11.43;5.83;;;5.00;42.80;;;;;;5053849;28;20028;-68
2022/01/12 08:29:18;;;;;;;14.57;6.73;;;5.10;42.90;;;;;;5052013;28;20029;-68
2022/01/12 08:31:45;;;;;;;19.87;5.97;;;5.10;42.70;;;;;;5051993;28;20037;-66
2022/01/12 08:34:11;;;;;;;10.20;6.20;;;5.10;42.70;;;;;;5052128;28;20082;-67
2022/01/12 08:36:41;;;;;;;10.67;5.80;;;5.20;42.90;;;;;;5053638;28;20108;-75
2022/01/12 08:39:08;;;;;;;17.00;6.10;;;5.20;42.20;;;;;;5053522;28;20036;-67
2022/01/12 08:41:38;;;;;;;10.33;5.73;;;5.30;42.00;;;;;;5053637;28;20079;-67
2022/01/12 08:44:06;;;;;;;9.00;5.13;;;5.30;41.90;;;;;;5053144;28;20040;-67
2022/01/12 08:46:31;;;;;;;12.03;5.50;;;5.40;41.80;;;;;;5053406;28;20032;-67
2022/01/12 08:48:57;;;;;;;10.00;5.43;;;5.40;41.50;;;;;;5053513;28;20029;-67
2022/01/12 08:51:23;;;;;;;9.87;5.13;;;5.40;41.50;;;;;;5053226;28;20033;-75
2022/01/12 08:53:49;;;;;;;9.60;5.40;;;5.50;41.40;;;;;;5053295;28;20151;-68
2022/01/12 08:56:14;;;;;;;9.00;5.30;;;5.50;41.60;;;;;;5053061;28;20194;-68
2022/01/12 08:58:41;;;;;;;8.03;4.70;;;5.50;41.60;;;;;;5053170;28;20483;-70
2022/01/12 09:01:09;;;;;;;7.17;4.90;;;5.50;40.70;;;;;;5053174;28;20040;-71
2022/01/12 09:03:35;;;;;;;9.27;4.90;;;5.50;41.30;;;;;;5053026;28;20432;-68
2022/01/12 09:06:03;;;;;;;9.10;4.80;;;5.50;41.20;;;;;;5052935;28;20037;-69
2022/01/12 09:08:29;;;;;;;10.27;4.70;;;5.60;40.90;;;;;;5053071;28;20420;-68
2022/01/12 09:10:54;;;;;;;8.60;4.97;;;5.60;40.50;;;;;;5052849;28;20037;-68
2022/01/12 09:13:20;;;;;;;7.23;4.30;;;5.70;40.10;;;;;;5052928;28;20457;-68
2022/01/12 09:15:46;;;;;;;9.33;4.40;;;5.70;40.10;;;;;;5052854;28;20104;-68
2022/01/12 09:18:12;;;;;;;10.53;4.50;;;5.80;39.60;;;;;;5052728;28;20025;-68
2022/01/12 09:20:38;;;;;;;9.73;5.20;;;5.80;40.00;;;;;;5052688;28;20072;-68
2022/01/12 09:23:04;;;;;;;9.07;4.90;;;5.80;39.60;;;;;;5052830;28;20033;-68
2022/01/12 09:25:35;;;;;;;8.37;4.50;;;5.90;39.30;;;;;;5052662;28;20100;-68
2022/01/12 09:28:02;;;;;;;9.13;4.97;;;5.90;39.40;;;;;;5052911;28;20017;-69
2022/01/12 09:30:29;;;;;;;6.40;4.20;;;5.90;39.90;;;;;;5052868;28;20131;-68
2022/01/12 09:32:55;;;;;;;8.53;4.77;;;5.90;39.20;;;;;;5052974;28;20025;-68
2022/01/12 09:35:20;;;;;;;7.63;4.33;;;5.90;39.10;;;;;;5052562;28;20036;-68
2022/01/12 09:37:46;;;;;;;12.10;4.80;;;6.00;39.20;;;;;;5052518;28;20355;-69
2022/01/12 09:40:13;;;;;;;8.43;4.80;;;6.00;39.50;;;;;;5052943;28;20095;-68
2022/01/12 09:42:39;;;;;;;8.90;4.67;;;6.10;39.10;;;;;;5052675;28;20484;-68
2022/01/12 09:45:07;;;;;;;9.47;4.67;;;6.10;38.90;;;;;;5052585;28;20028;-68
2022/01/12 09:47:33;;;;;;;9.10;5.20;;;6.20;38.30;;;;;;5052759;28;20033;-68
2022/01/12 09:49:59;;;;;;;12.07;4.80;;;6.20;38.00;;;;;;5052651;28;20362;-68
2022/01/12 09:52:25;;;;;;;6.67;3.60;;;6.20;38.20;;;;;;5052679;28;20017;-68
2022/01/12 09:54:50;;;;;;;8.50;4.50;;;6.20;37.80;;;;;;5052757;28;20086;-68
2022/01/12 09:57:16;;;;;;;9.80;4.27;;;6.20;38.10;;;;;;5052611;28;20067;-68
2022/01/12 09:59:42;;;;;;;8.50;5.00;;;6.30;37.90;;;;;;5052424;28;20059;-68
2022/01/12 10:02:15;;;;;;;8.83;3.77;;;6.30;38.30;;;;;;5052059;28;20021;-68
2022/01/12 10:04:41;;;;;;;7.17;4.37;;;6.30;38.20;;;;;;5053036;28;20025;-68
2022/01/12 10:07:07;;;;;;;7.43;4.50;;;6.30;38.30;;;;;;5056111;28;20074;-68
2022/01/12 10:09:39;;;;;;;8.13;4.63;;;6.40;38.20;;;;;;5056459;28;20025;-68
2022/01/12 10:12:11;;;;;;;9.70;4.45;;;6.40;38.20;;;;;;5054521;28;20037;-67
2022/01/12 10:14:55;;;;;;;8.30;4.57;;;6.40;37.70;;;;;;5055679;28;20393;-67
2022/01/12 10:18:00;;;;;;;7.27;4.40;;;6.50;38.50;;;;;;5055818;28;20029;-68
2022/01/12 10:20:26;;;;;;;7.53;4.33;;;6.50;38.80;;;;;;5008714;28;20498;-68
2022/01/12 10:22:59;;;;;;;8.17;4.13;;;6.50;37.90;;;;;;5059489;28;20107;-68
2022/01/12 10:25:27;;;;;;;9.00;4.40;;;6.50;38.20;;;;;;5075400;28;20094;-68
2022/01/12 10:27:53;;;;;;;7.90;4.57;;;6.60;38.10;;;;;;5075629;28;20021;-68
2022/01/12 10:30:22;;;;;;;7.13;4.80;;;6.60;37.60;;;;;;5074300;28;20085;-68
2022/01/12 10:33:02;;;;;;;9.20;4.57;;;6.70;37.40;;;;;;5074552;28;20021;-68
2022/01/12 10:35:30;;;;;;;8.93;4.63;;;6.70;37.20;;;;;;5075877;28;20025;-68
2022/01/12 10:38:09;;;;;;;7.17;4.10;;;6.70;37.90;;;;;;5075734;28;20169;-69
2022/01/12 10:41:03;;;;;;;8.10;4.20;;;6.80;37.10;;;;;;5075880;28;20330;-68
2022/01/12 10:43:38;;;;;;;6.35;4.10;;;6.80;37.50;;;;;;5075612;28;20024;-68
2022/01/12 10:46:10;;;;;;;7.27;4.23;;;6.90;37.80;;;;;;5075519;28;20028;-69
2022/01/12 10:48:43;;;;;;;7.03;3.80;;;6.90;37.80;;;;;;5075668;28;20039;-68
2022/01/12 10:51:10;;;;;;;7.97;5.00;;;7.00;37.00;;;;;;5074245;28;20040;-68
2022/01/12 10:53:37;;;;;;;6.90;4.40;;;7.00;37.00;;;;;;5075528;28;20024;-68
2022/01/12 10:56:04;;;;;;;7.47;4.20;;;7.10;36.90;;;;;;5074819;28;20077;-68
2022/01/12 10:58:30;;;;;;;7.27;4.17;;;7.10;36.90;;;;;;5075482;28;20044;-68
2022/01/12 11:00:57;;;;;;;7.33;3.97;;;7.20;37.40;;;;;;5074433;28;20024;-68
2022/01/12 11:03:23;;;;;;;5.80;3.70;;;7.20;36.80;;;;;;5074675;28;20469;-68
2022/01/12 11:05:50;;;;;;;5.43;2.87;;;7.30;36.30;;;;;;5074072;28;20033;-68
2022/01/12 11:08:18;;;;;;;6.10;3.57;;;7.20;33.20;;;;;;5073783;28;20032;-69
2022/01/12 11:10:48;;;;;;;6.33;3.40;;;7.30;34.80;;;;;;5073537;28;20489;-69
2022/01/12 11:13:13;;;;;;;13.43;3.90;;;7.40;35.60;;;;;;5074949;28;20384;-68
2022/01/12 11:15:39;;;;;;;10.47;4.40;;;7.40;36.10;;;;;;5074018;28;20028;-69
2022/01/12 11:18:05;;;;;;;8.57;4.13;;;7.50;35.10;;;;;;5072271;28;20027;-68
2022/01/12 11:20:31;;;;;;;9.77;5.17;;;7.50;35.00;;;;;;5074791;28;20385;-68
2022/01/12 11:23:16;;;;;;;6.27;3.93;;;7.60;36.30;;;;;;5074741;28;20032;-70
2022/01/12 11:25:44;;;;;;;7.40;4.50;;;7.60;36.30;;;;;;5074719;28;20055;-69
2022/01/12 11:28:36;;;;;;;6.70;4.00;;;7.70;36.30;;;;;;5074638;28;20024;-68
2022/01/12 11:31:04;;;;;;;9.67;4.40;;;7.80;36.80;;;;;;5075107;28;20032;-68
2022/01/12 11:33:30;;;;;;;6.13;3.60;;;7.80;35.30;;;;;;5074526;28;20123;-68
2022/01/12 11:36:00;;;;;;;8.07;4.23;;;7.80;35.30;;;;;;5074702;28;20107;-68
2022/01/12 11:38:35;;;;;;;12.13;4.67;;;7.80;35.30;;;;;;5074976;28;20051;-68
2022/01/12 11:41:15;;;;;;;6.53;3.87;;;7.80;36.20;;;;;;5075137;28;20069;-69
2022/01/12 11:43:45;;;;;;;6.00;3.43;;;7.80;35.40;;;;;;5074368;28;20381;-68
2022/01/12 11:46:17;;;;;;;6.77;4.00;;;7.80;35.60;;;;;;5074703;28;20469;-69
2022/01/12 11:48:53;;;;;;;5.82;3.28;;;7.70;35.00;;;;;;5074646;28;20103;-68
2022/01/12 11:51:32;;;;;;;6.33;3.70;;;7.80;35.30;;;;;;5074271;28;20036;-68
2022/01/12 11:54:07;;;;;;;7.53;3.63;;;7.80;35.80;;;;;;5074054;28;20021;-68
2022/01/12 11:56:32;;;;;;;7.13;3.83;;;7.90;35.40;;;;;;5074370;28;20058;-68
2022/01/12 11:59:06;;;;;;;6.20;3.53;;;7.90;35.10;;;;;;5074521;28;20395;-68
2022/01/12 12:01:38;;;;;;;7.53;4.13;;;8.00;35.00;;;;;;5074255;28;20020;-68
2022/01/12 12:04:05;;;;;;;6.60;3.95;;;8.00;35.60;;;;;;5074204;28;20024;-68
2022/01/12 12:06:32;;;;;;;6.30;3.33;;;8.10;35.90;;;;;;5073912;28;20020;-69
2022/01/12 12:09:05;;;;;;;5.40;3.20;;;8.20;34.90;;;;;;5073981;28;20432;-68
2022/01/12 12:11:32;;;;;;;8.17;3.40;;;8.20;34.70;;;;;;5064260;28;20397;-68
2022/01/12 12:14:16;;;;;;;6.33;3.57;;;8.20;34.40;;;;;;5055008;28;20047;-68
2022/01/12 12:16:43;;;;;;;8.57;3.53;;;8.20;34.20;;;;;;5053725;28;20025;-68
2022/01/12 12:19:08;;;;;;;6.27;3.70;;;8.20;34.50;;;;;;5053927;28;20104;-68
2022/01/12 12:21:34;;;;;;;7.43;3.77;;;8.20;34.40;;;;;;5053841;28;20128;-68
2022/01/12 12:24:11;;;;;;;5.73;3.83;;;8.20;34.40;;;;;;5053928;28;20033;-68
2022/01/12 12:27:04;;;;;;;7.60;3.77;;;8.20;34.90;;;;;;5053306;28;20025;-68
2022/01/12 12:29:30;;;;;;;7.90;4.00;;;8.30;35.00;;;;;;5051088;28;20149;-67
2022/01/12 12:31:56;;;;;;;11.47;3.77;;;8.30;35.00;;;;;;5053672;28;20037;-68
2022/01/12 12:34:25;;;;;;;12.47;3.90;;;8.30;34.80;;;;;;5056565;23;20130;-69
2022/01/12 12:37:02;;;;;;;6.80;3.43;;;8.30;34.50;;;;;;5013955;28;20036;-71
2022/01/12 12:39:34;;;;;;;6.57;3.60;;;8.30;34.00;;;;;;5014272;28;20064;-76
2022/01/12 12:42:02;;;;;;;8.43;3.87;;;8.40;34.30;;;;;;5015167;28;20021;-71
2022/01/12 12:44:33;;;;;;;6.43;3.50;;;8.40;34.50;;;;;;5014960;28;20474;-71
2022/01/12 12:47:13;;;;;;;5.83;3.47;;;8.40;34.60;;;;;;5012763;28;20597;-71
2022/01/12 12:49:57;;;;;;;6.63;3.77;;;8.50;34.70;;;;;;5012303;28;20130;-70
2022/01/12 12:52:27;;;;;;;6.53;3.70;;;8.40;33.40;;;;;;5012395;28;20556;-69
2022/01/12 12:54:54;;;;;;;7.70;4.07;;;8.40;33.90;;;;;;5013611;28;20057;-68
2022/01/12 12:57:21;;;;;;;8.43;3.87;;;8.40;33.90;;;;;;5013275;28;20029;-70
2022/01/12 13:00:12;;;;;;;6.93;4.00;;;8.40;33.80;;;;;;5012863;28;20025;-73
2022/01/12 13:02:49;;;;;;;10.23;4.27;;;8.40;34.20;;;;;;5008453;28;20108;-72
2022/01/12 13:05:19;;;;;;;8.00;4.47;;;8.40;34.10;;;;;;5013043;28;20026;-73
2022/01/12 13:07:47;;;;;;;6.90;3.83;;;8.40;34.30;;;;;;5013029;28;20104;-72
2022/01/12 13:10:16;;;;;;;6.63;3.93;;;8.40;33.90;;;;;;5012223;28;20030;-68
2022/01/12 13:12:45;;;;;;;6.30;4.00;;;8.50;33.40;;;;;;5013043;28;20030;-70
2022/01/12 13:15:36;;;;;;;8.27;3.80;;;8.50;33.60;;;;;;5012689;28;20026;-74
2022/01/12 13:18:13;;;;;;;8.03;4.00;;;8.50;32.80;;;;;;5013092;28;20038;-68
2022/01/12 13:23:30;;;;;;;6.30;3.90;;;8.50;33.40;;;;;;5011940;28;20101;-69
2022/01/12 13:26:06;;;;;;;8.27;4.50;;;8.50;33.50;;;;;;5012653;28;20079;-69
2022/01/12 13:28:52;;;;;;;6.77;3.87;;;8.50;33.70;;;;;;5012102;28;20026;-69
2022/01/12 13:31:22;;;;;;;7.30;4.53;;;8.50;34.50;;;;;;5012397;28;20037;-72
2022/01/12 13:33:50;;;;;;;8.27;4.30;;;8.50;33.60;;;;;;5012057;28;20029;-67
2022/01/12 13:36:30;;;;;;;7.27;4.40;;;8.50;34.60;;;;;;5012654;28;20079;-71
2022/01/12 13:38:59;;;;;;;10.60;4.07;;;8.40;34.80;;;;;;5013668;28;20026;-75
2022/01/12 13:41:30;;;;;;;7.17;4.23;;;8.40;34.20;;;;;;5015400;28;20633;-68
2022/01/12 13:43:57;;;;;;;10.83;4.50;;;8.40;33.60;;;;;;5016841;28;20379;-72
2022/01/12 13:46:39;;;;;;;8.47;4.43;;;8.40;33.40;;;;;;5017156;28;20042;-72
2022/01/12 13:51:42;;;;;;;11.53;5.40;;;8.30;34.40;;;;;;5015893;28;20042;-76
2022/01/12 13:54:13;;;;;;;10.57;5.60;;;8.30;34.40;;;;;;5015810;28;20439;-69
2022/01/12 13:56:46;;;;;;;12.50;6.13;;;8.30;35.00;;;;;;5016879;28;20084;-74
2022/01/12 13:59:14;;;;;;;16.57;5.93;;;;;;;;;;5017026;28;20478;-76
2022/01/12 14:01:41;;;;;;;10.97;6.00;;;;;;;;;;5016934;28;20029;-76
2022/01/12 14:04:15;;;;;;;9.23;6.00;;;;;;;;;;5016873;28;20091;-79
2022/01/12 14:06:46;;;;;;;8.07;5.13;;;;;;;;;;5016917;28;20026;-82
2022/01/12 14:09:29;;;;;;;10.47;5.80;;;;;;;;;;5015388;28;20112;-77
2022/01/12 14:11:55;;;;;;;12.23;5.93;;;;;;;;;;5016736;28;20467;-82
2022/01/12 14:14:22;;;;;;;9.13;5.50;;;;;;;;;;5016893;28;20018;-75
2022/01/12 14:16:48;;;;;;;12.43;6.90;;;;;;;;;;5016770;28;20140;-75
2022/01/12 14:19:14;;;;;;;11.90;6.33;;;;;;;;;;5016306;28;20058;-76
2022/01/12 14:21:41;;;;;;;13.70;6.00;;;;;;;;;;5016032;28;20092;-80
2022/01/12 14:24:12;;;;;;;12.47;6.23;;;;;;;;;;5016420;28;20382;-89
2022/01/12 14:26:42;;;;;;;10.27;6.17;;;;;;;;;;5015049;28;20026;-75
2022/01/12 14:29:09;;;;;;;12.40;6.43;;;;;;;;;;5016791;28;20029;-76
2022/01/12 14:31:36;;;;;;;12.17;6.87;;;;;;;;;;5016180;28;20033;-75
2022/01/12 14:34:02;;;;;;;10.67;6.50;;;;;;;;;;5014796;28;20394;-77